createdAt,value
2023-03-30T00:01:57.334Z,15.80
2023-03-30T00:07:02.117Z,15.70
2023-03-30T00:12:05.614Z,15.70
2023-03-30T00:17:09.086Z,15.60
2023-03-30T00:22:13.827Z,15.60
2023-03-30T00:27:17.263Z,15.60
2023-03-30T00:32:21.892Z,15.50
2023-03-30T00:37:27.738Z,15.50
2023-03-30T00:42:31.199Z,15.50
2023-03-30T00:47:35.551Z,15.40
2023-03-30T00:52:41.322Z,15.40
2023-03-30T00:57:45.497Z,15.30
2023-03-30T01:02:53.524Z,15.30
2023-03-30T01:07:59.544Z,15.30
2023-03-30T01:13:03.208Z,15.30
2023-03-30T01:18:24.239Z,15.20
2023-03-30T01:23:55.290Z,15.20
2023-03-30T01:29:03.794Z,15.20
2023-03-30T01:34:33.779Z,15.10
2023-03-30T01:39:46.180Z,15.10
2023-03-30T01:44:56.616Z,15.10
2023-03-30T01:50:04.955Z,15.00
2023-03-30T01:55:14.856Z,15.00
2023-03-30T02:00:21.519Z,15.00
2023-03-30T02:05:25.755Z,15.00
2023-03-30T02:10:36.245Z,15.00
2023-03-30T02:15:43.303Z,15.00
2023-03-30T02:20:47.569Z,15.00
2023-03-30T02:25:52.392Z,15.00
2023-03-30T02:30:55.779Z,15.00
2023-03-30T02:36:20.879Z,15.00
2023-03-30T02:41:41.603Z,15.00
2023-03-30T02:47:01.691Z,15.00
2023-03-30T02:52:12.582Z,15.00
2023-03-30T02:57:30.840Z,15.00
2023-03-30T03:02:57.599Z,15.00
2023-03-30T03:08:05.209Z,15.00
2023-03-30T03:13:11.096Z,15.00
2023-03-30T03:18:18.774Z,15.00
2023-03-30T03:23:25.288Z,15.00
2023-03-30T03:28:33.026Z,15.00
2023-03-30T03:33:42.412Z,15.00
2023-03-30T03:38:55.954Z,15.00
2023-03-30T03:44:01.105Z,14.90
2023-03-30T03:49:05.213Z,14.90
2023-03-30T03:54:08.647Z,14.90
2023-03-30T03:59:13.982Z,14.90
2023-03-30T04:04:17.616Z,14.90
2023-03-30T04:09:22.096Z,14.90
2023-03-30T04:14:45.152Z,14.90
2023-03-30T04:19:53.849Z,14.90
2023-03-30T04:25:18.137Z,14.90
2023-03-30T04:31:03.174Z,14.90
2023-03-30T04:36:23.388Z,14.80
2023-03-30T04:41:47.442Z,14.80
2023-03-30T04:47:18.160Z,14.80
2023-03-30T04:52:47.776Z,14.80
2023-03-30T04:58:23.079Z,14.80
2023-03-30T05:03:46.363Z,14.70
2023-03-30T05:09:09.888Z,14.80
2023-03-30T05:14:33.136Z,14.70
2023-03-30T05:19:57.803Z,14.70
2023-03-30T05:25:20.038Z,14.70
2023-03-30T05:31:02.156Z,14.70
2023-03-30T05:36:19.683Z,14.60
2023-03-30T05:41:46.266Z,14.70
2023-03-30T05:47:28.975Z,15.00
2023-03-30T05:52:55.297Z,15.20
2023-03-30T05:58:18.131Z,15.40
2023-03-30T06:03:35.640Z,15.40
2023-03-30T06:08:42.875Z,15.40
2023-03-30T06:13:51.219Z,15.40
2023-03-30T06:18:54.744Z,15.30
2023-03-30T06:24:00.117Z,15.30
2023-03-30T06:29:06.403Z,15.30
2023-03-30T06:34:10.074Z,15.30
2023-03-30T06:39:15.329Z,15.20
2023-03-30T06:44:19.898Z,15.20
2023-03-30T06:49:24.035Z,15.20
2023-03-30T06:54:47.459Z,15.20
2023-03-30T06:59:51.189Z,15.30
2023-03-30T07:05:15.847Z,15.30
2023-03-30T07:10:49.853Z,15.30
2023-03-30T07:15:54.227Z,15.30
2023-03-30T07:20:59.198Z,15.40
2023-03-30T07:26:08.547Z,15.40
2023-03-30T07:31:20.180Z,15.50
2023-03-30T07:36:25.405Z,15.50
2023-03-30T07:41:31.452Z,15.50
2023-03-30T07:46:36.217Z,15.60
2023-03-30T07:51:39.969Z,15.60
2023-03-30T07:57:14.133Z,15.60
2023-03-30T08:02:18.177Z,15.70
2023-03-30T08:07:30.959Z,15.70
2023-03-30T08:12:45.981Z,15.80
2023-03-30T08:17:49.594Z,15.90
2023-03-30T08:22:52.959Z,16.00
2023-03-30T08:27:57.817Z,16.10
2023-03-30T08:33:01.186Z,16.20
2023-03-30T08:38:04.518Z,16.30
2023-03-30T08:43:47.264Z,16.40
2023-03-30T08:48:52.406Z,16.50
2023-03-30T08:53:58.457Z,16.60
2023-03-30T08:59:21.206Z,16.70
2023-03-30T09:04:34.343Z,16.90
2023-03-30T09:09:46.572Z,17.00
2023-03-30T09:14:56.482Z,17.10
2023-03-30T09:20:07.078Z,17.30
2023-03-30T09:25:18.514Z,17.50
2023-03-30T09:30:26.511Z,17.60
2023-03-30T09:35:41.912Z,17.80
2023-03-30T09:40:58.355Z,17.90
2023-03-30T09:46:07.860Z,18.00
2023-03-30T09:51:23.490Z,18.10
2023-03-30T09:56:29.695Z,18.20
2023-03-30T10:01:39.062Z,18.30
2023-03-30T10:06:48.508Z,18.30
2023-03-30T10:11:54.147Z,18.40
2023-03-30T10:17:00.735Z,18.40
2023-03-30T10:22:04.673Z,18.40
2023-03-30T10:27:13.199Z,18.50
2023-03-30T10:32:20.761Z,18.60
2023-03-30T10:37:31.998Z,18.60
2023-03-30T10:42:35.452Z,18.70
2023-03-30T10:48:00.186Z,18.70
2023-03-30T10:53:16.040Z,18.90
2023-03-30T10:58:32.161Z,19.00
2023-03-30T11:03:45.276Z,19.00
2023-03-30T11:08:52.682Z,19.10
2023-03-30T11:14:01.994Z,19.20
2023-03-30T11:19:11.769Z,19.20
2023-03-30T11:24:19.960Z,19.30
2023-03-30T11:29:35.434Z,19.30
2023-03-30T11:34:52.785Z,19.30
2023-03-30T11:40:08.490Z,19.40
2023-03-30T11:45:40.494Z,19.50
2023-03-30T11:51:01.086Z,19.50
2023-03-30T11:56:09.009Z,19.50
2023-03-30T12:01:35.604Z,19.60
2023-03-30T12:06:43.385Z,19.60
2023-03-30T12:11:51.061Z,19.60
2023-03-30T12:16:59.020Z,19.60
2023-03-30T12:22:08.114Z,19.70
2023-03-30T12:27:12.110Z,19.80
2023-03-30T12:32:26.978Z,19.90
2023-03-30T12:37:36.037Z,20.00
2023-03-30T12:42:46.608Z,20.10
2023-03-30T12:48:14.478Z,20.10
2023-03-30T12:53:59.669Z,20.10
2023-03-30T12:59:30.135Z,20.20
2023-03-30T13:04:38.929Z,20.30
2023-03-30T13:09:57.918Z,20.30
2023-03-30T13:15:06.950Z,20.30
2023-03-30T13:20:30.146Z,20.30
2023-03-30T13:25:41.415Z,20.30
2023-03-30T13:30:47.173Z,20.30
2023-03-30T13:36:03.799Z,20.30
2023-03-30T13:41:22.020Z,20.30
2023-03-30T13:46:34.396Z,20.30
2023-03-30T13:51:39.418Z,20.20
2023-03-30T13:56:48.158Z,20.20
2023-03-30T14:01:56.625Z,20.20
2023-03-30T14:07:05.620Z,20.20
2023-03-30T14:12:09.561Z,20.10
2023-03-30T14:17:20.156Z,20.10
2023-03-30T14:22:27.489Z,20.10
2023-03-30T14:27:35.238Z,20.10
2023-03-30T14:32:40.378Z,20.10
2023-03-30T14:37:51.651Z,20.10
2023-03-30T14:42:55.607Z,20.00
2023-03-30T14:48:00.921Z,20.00
2023-03-30T14:53:04.710Z,20.00
